Time;durP1;ratioP1;P1;durP2;ratioP2;P2;SDS_P1;SDS_P2;PMS_P1;PMS_P2;Temp;Humidity;BMP_temperature;BMP_pressure;BME280_temperature;BME280_humidity;BME280_pressure;Samples;Min_cycle;Max_cycle;Signal;HPM_P1;HPM_P2
2023/05/21 00:01:06;;;;;;;5.47;4.93;;;;;;;14.17;100.00;95961.56;5071546;27;101836;-60
2023/05/21 00:03:34;;;;;;;6.97;5.17;;;;;;;14.21;100.00;95962.59;5069773;27;105540;-60
2023/05/21 00:06:02;;;;;;;5.90;4.83;;;;;;;14.09;100.00;95957.63;5074335;27;102574;-60
2023/05/21 00:08:29;;;;;;;5.67;5.17;;;;;;;13.95;100.00;95958.56;5070020;27;103651;-60
2023/05/21 00:10:56;;;;;;;6.70;5.03;;;;;;;13.89;100.00;95955.13;5069540;27;105320;-60
2023/05/21 00:13:23;;;;;;;6.23;5.10;;;;;;;13.89;100.00;95957.78;5069752;27;102480;-60
2023/05/21 00:15:50;;;;;;;5.40;4.90;;;;;;;13.88;100.00;95961.53;5070197;27;105508;-60
2023/05/21 00:18:17;;;;;;;7.17;5.20;;;;;;;13.91;100.00;95960.97;5069414;27;105081;-60
2023/05/21 00:20:46;;;;;;;6.27;5.03;;;;;;;13.95;100.00;95947.88;5069856;27;101951;-60
2023/05/21 00:23:16;;;;;;;5.57;5.07;;;;;;;13.96;100.00;95944.09;5069939;27;105609;-60
2023/05/21 00:25:43;;;;;;;5.30;4.83;;;;;;;13.96;100.00;95944.09;5070668;27;101887;-61
2023/05/21 00:28:10;;;;;;;8.43;5.53;;;;;;;13.98;100.00;95931.25;5072731;27;101907;-61
2023/05/21 00:30:38;;;;;;;6.03;5.43;;;;;;;13.80;100.00;95946.09;5069159;27;105202;-60
2023/05/21 00:33:06;;;;;;;5.93;5.33;;;;;;;13.81;100.00;95945.06;5069455;27;101998;-60
2023/05/21 00:35:33;;;;;;;6.80;6.07;;;;;;;13.76;100.00;95938.94;5069481;27;105558;-60
2023/05/21 00:38:01;;;;;;;5.93;5.43;;;;;;;13.83;100.00;95936.72;5068810;27;105081;-60
2023/05/21 00:40:29;;;;;;;7.30;6.20;;;;;;;13.74;100.00;95933.09;5069586;27;101978;-60
2023/05/21 00:42:56;;;;;;;8.37;6.20;;;;;;;13.74;100.00;95941.88;5069351;27;105023;-60
2023/05/21 00:45:24;;;;;;;6.00;5.40;;;;;;;13.70;100.00;95932.84;5068009;27;105324;-60
2023/05/21 00:47:53;;;;;;;5.83;5.33;;;;;;;13.67;100.00;95935.25;5071027;27;102119;-60
2023/05/21 00:50:21;;;;;;;7.10;6.40;;;;;;;13.72;100.00;95932.56;5073448;27;102527;-60
2023/05/21 00:52:50;;;;;;;8.00;5.97;;;;;;;13.72;100.00;95937.91;5069593;27;101925;-60
2023/05/21 00:55:18;;;;;;;7.70;6.43;;;;;;;13.36;100.00;95931.25;5070506;27;102289;-60
2023/05/21 00:57:48;;;;;;;6.80;6.10;;;;;;;13.52;100.00;95927.41;5068864;27;105850;-60
2023/05/21 01:00:15;;;;;;;6.60;5.87;;;;;;;13.57;100.00;95927.34;5069262;27;101968;-60
2023/05/21 01:02:43;;;;;;;6.77;6.07;;;;;;;13.48;100.00;95932.50;5052146;27;106426;-60
2023/05/21 01:05:11;;;;;;;6.10;5.60;;;;;;;13.46;100.00;95931.97;5068170;27;103981;-60
2023/05/21 01:07:40;;;;;;;8.67;5.93;;;;;;;13.19;100.00;95938.84;5070763;27;101883;-60
2023/05/21 01:10:10;;;;;;;5.73;5.20;;;;;;;12.86;100.00;95940.34;5068973;27;105685;-60
2023/05/21 01:12:42;;;;;;;6.90;5.60;;;;;;;12.91;100.00;95939.53;5072184;27;106170;-60
2023/05/21 01:15:10;;;;;;;5.80;5.30;;;;;;;12.89;100.00;95933.66;5068783;27;105144;-60
2023/05/21 01:17:38;;;;;;;5.77;5.00;;;;;;;12.84;100.00;95936.34;5070078;27;102573;-60
2023/05/21 01:20:09;;;;;;;5.57;5.10;;;;;;;12.63;100.00;95933.00;5068841;27;101955;-60
2023/05/21 01:22:41;;;;;;;5.70;5.07;;;;;;;12.61;100.00;95927.13;5068957;27;105299;-60
2023/05/21 01:25:10;;;;;;;6.07;5.43;;;;;;;12.36;100.00;95921.09;5067434;27;105303;-60
2023/05/21 01:27:37;;;;;;;6.93;5.80;;;;;;;12.39;100.00;95913.38;5068114;27;101868;-60
2023/05/21 01:30:07;;;;;;;6.30;5.80;;;;;;;12.55;100.00;95912.25;5069156;27;102500;-60
2023/05/21 01:32:42;;;;;;;6.33;5.73;;;;;;;12.62;100.00;95911.91;5067247;27;105773;-60
2023/05/21 01:35:13;;;;;;;6.10;5.60;;;;;;;12.60;100.00;95924.75;5073143;27;101732;-60
2023/05/21 01:37:45;;;;;;;6.40;5.80;;;;;;;12.49;100.00;95915.19;5067326;27;105562;-60
2023/05/21 01:40:20;;;;;;;6.30;5.70;;;;;;;12.32;100.00;95917.41;5068052;27;102628;-60
2023/05/21 01:42:47;;;;;;;7.83;5.50;;;;;;;12.54;100.00;95915.16;5068131;27;104536;-60
2023/05/21 01:45:17;;;;;;;6.70;5.77;;;;;;;12.62;100.00;95906.59;5067339;27;104252;-60
2023/05/21 01:47:47;;;;;;;6.10;5.60;;;;;;;12.60;100.00;95903.41;5067634;27;101964;-60
2023/05/21 01:50:15;;;;;;;6.50;5.90;;;;;;;12.53;100.00;95914.38;5068063;27;105348;-60
2023/05/21 01:52:49;;;;;;;6.33;5.73;;;;;;;12.56;100.00;95907.69;5067261;27;106147;-60
2023/05/21 01:55:23;;;;;;;6.30;5.70;;;;;;;12.71;100.00;95899.63;5067854;27;102050;-60
2023/05/21 01:57:51;;;;;;;6.27;5.70;;;;;;;12.74;100.00;95902.53;5072735;27;105839;-60
2023/05/21 02:00:19;;;;;;;5.73;5.23;;;;;;;12.83;100.00;95902.75;5071250;27;101900;-60
2023/05/21 02:02:46;;;;;;;6.93;5.77;;;;;;;12.85;100.00;95897.91;5071248;27;105279;-60
2023/05/21 02:05:13;;;;;;;6.10;5.60;;;;;;;12.72;100.00;95906.53;5070672;27;105568;-60
2023/05/21 02:07:42;;;;;;;8.00;6.40;;;;;;;12.52;100.00;95911.97;5070965;27;102098;-60
2023/05/21 02:10:10;;;;;;;6.27;5.67;;;;;;;12.57;100.00;95918.09;5072309;27;102351;-60
2023/05/21 02:12:39;;;;;;;7.23;6.53;;;;;;;12.51;100.00;95913.03;5071932;27;103018;-60
2023/05/21 02:15:07;;;;;;;6.03;5.43;;;;;;;12.39;100.00;95915.22;5070856;27;102012;-60
2023/05/21 02:17:34;;;;;;;6.20;5.60;;;;;;;12.48;100.00;95910.94;5075428;27;102471;-61
2023/05/21 02:20:10;;;;;;;6.13;5.50;;;;;;;12.45;100.00;95914.13;5070764;27;101985;-61
2023/05/21 02:22:37;;;;;;;7.10;6.03;;;;;;;12.47;100.00;95911.97;5072822;27;102789;-61
2023/05/21 02:25:06;;;;;;;6.57;5.77;;;;;;;12.50;100.00;95909.59;5070232;27;105157;-61
2023/05/21 02:27:33;;;;;;;6.43;5.83;;;;;;;12.39;100.00;95908.03;5072609;27;101761;-60
2023/05/21 02:30:02;;;;;;;6.47;5.87;;;;;;;12.17;100.00;95896.94;5070590;27;105298;-60
2023/05/21 02:32:30;;;;;;;7.33;6.43;;;;;;;12.29;100.00;95897.41;5071537;27;102512;-60
2023/05/21 02:34:57;;;;;;;6.40;5.80;;;;;;;12.31;100.00;95897.91;5072174;27;102189;-60
2023/05/21 02:37:26;;;;;;;6.40;5.80;;;;;;;12.19;100.00;95901.97;5070800;27;104135;-60
2023/05/21 02:39:53;;;;;;;6.33;5.73;;;;;;;12.04;100.00;95902.03;5073715;27;105541;-60
2023/05/21 02:42:20;;;;;;;6.50;5.90;;;;;;;12.00;100.00;95898.31;5070863;27;105486;-60
2023/05/21 02:44:47;;;;;;;6.10;5.50;;;;;;;12.04;100.00;95900.16;5069973;27;105311;-60
2023/05/21 02:47:15;;;;;;;6.40;5.80;;;;;;;11.96;100.00;95897.22;5070764;27;101859;-60
2023/05/21 02:49:42;;;;;;;6.60;5.73;;;;;;;11.90;100.00;95893.00;5070308;27;105048;-60
2023/05/21 02:52:09;;;;;;;6.70;5.73;;;;;;;11.81;100.00;95894.59;5070009;27;105169;-60
2023/05/21 02:54:36;;;;;;;5.93;5.33;;;;;;;11.72;100.00;95896.22;5070315;27;102038;-60
2023/05/21 02:57:03;;;;;;;6.97;6.37;;;;;;;11.62;100.00;95896.25;5070663;27;105942;-60
2023/05/21 02:59:30;;;;;;;6.37;5.73;;;;;;;11.64;100.00;95899.44;5071282;27;102654;-60
2023/05/21 03:01:57;;;;;;;6.67;5.97;;;;;;;11.79;100.00;95902.06;5073888;27;102652;-60
2023/05/21 03:04:27;;;;;;;7.23;5.83;;;;;;;12.05;100.00;95904.41;5069774;27;104943;-60
2023/05/21 03:06:54;;;;;;;6.13;5.53;;;;;;;12.08;100.00;95892.41;5070321;27;101910;-60
2023/05/21 03:09:21;;;;;;;6.07;5.47;;;;;;;12.13;100.00;95893.19;5069476;27;103665;-60
2023/05/21 03:11:49;;;;;;;6.23;5.67;;;;;;;12.14;100.00;95893.97;5069725;27;103889;-60
2023/05/21 03:14:16;;;;;;;6.10;5.60;;;;;;;12.18;100.00;95895.03;5069867;27;101872;-61
2023/05/21 03:16:43;;;;;;;5.90;5.40;;;;;;;12.22;100.00;95901.44;5069812;27;105068;-60
2023/05/21 03:19:11;;;;;;;7.27;6.57;;;;;;;12.25;100.00;95898.19;5069689;27;104960;-60
2023/05/21 03:21:40;;;;;;;6.67;5.83;;;;;;;12.19;100.00;95896.63;5070097;27;101896;-60
2023/05/21 03:24:08;;;;;;;6.93;6.30;;;;;;;11.96;100.00;95897.22;5072801;27;104809;-60
2023/05/21 03:26:35;;;;;;;7.30;6.27;;;;;;;11.96;100.00;95902.56;5070112;27;102341;-60
2023/05/21 03:29:02;;;;;;;6.70;6.10;;;;;;;11.95;100.00;95893.75;5069348;27;105328;-60
2023/05/21 03:31:29;;;;;;;6.63;5.80;;;;;;;11.93;100.00;95895.13;5069472;27;105455;-60
2023/05/21 03:34:12;;;;;;;7.77;6.97;;;;;;;11.82;100.00;95890.91;5071621;27;102123;-60
2023/05/21 03:36:40;;;;;;;6.70;6.07;;;;;;;11.82;100.00;95891.66;5069893;27;105281;-60
2023/05/21 03:39:08;;;;;;;6.77;5.70;;;;;;;11.79;100.00;95894.09;5069331;27;105422;-60
2023/05/21 03:41:35;;;;;;;6.67;5.83;;;;;;;11.78;100.00;95901.25;5069710;27;101952;-60
2023/05/21 03:44:09;;;;;;;6.30;5.70;;;;;;;11.71;100.00;95894.63;5071046;27;102853;-60
2023/05/21 03:47:08;;;;;;;6.50;5.90;;;;;;;11.72;100.00;95901.56;5038476;27;103010;-60
2023/05/21 03:49:36;;;;;;;6.10;5.60;;;;;;;11.61;100.00;95889.31;5069848;27;105527;-60
2023/05/21 03:52:06;;;;;;;5.90;5.40;;;;;;;11.61;100.00;95894.66;5069079;27;104887;-60
2023/05/21 03:54:32;;;;;;;6.00;5.40;;;;;;;11.70;100.00;95893.84;5069582;27;102002;-59
2023/05/21 03:57:04;;;;;;;7.50;6.63;;;;;;;11.76;100.00;95894.59;5069697;27;105258;-59
2023/05/21 03:59:31;;;;;;;6.80;6.20;;;;;;;11.79;100.00;95899.41;5070412;27;102607;-59
2023/05/21 04:02:00;;;;;;;6.90;6.20;;;;;;;11.67;100.00;95898.91;5069395;27;101874;-59
2023/05/21 04:04:28;;;;;;;7.30;6.50;;;;;;;11.73;100.00;95898.59;5069317;27;104086;-59
2023/05/21 04:06:55;;;;;;;6.50;5.90;;;;;;;11.86;100.00;95905.25;5068646;27;105668;-59
2023/05/21 04:09:24;;;;;;;6.83;6.20;;;;;;;11.87;100.00;95904.97;5072895;27;101805;-59
2023/05/21 04:11:52;;;;;;;6.53;5.93;;;;;;;11.95;100.00;95907.09;5069971;27;102787;-59
2023/05/21 04:14:19;;;;;;;6.87;6.13;;;;;;;11.99;100.00;95907.38;5068636;27;102245;-59
2023/05/21 04:16:47;;;;;;;6.80;6.20;;;;;;;11.96;100.00;95910.56;5068755;27;105132;-61
2023/05/21 04:19:15;;;;;;;7.07;6.37;;;;;;;12.06;100.00;95905.22;5069729;27;102669;-61
2023/05/21 04:21:43;;;;;;;6.97;6.37;;;;;;;12.13;100.00;95911.03;5069284;27;101964;-60
2023/05/21 04:24:12;;;;;;;6.70;6.10;;;;;;;12.21;100.00;95899.84;5069004;27;105003;-57
2023/05/21 04:26:50;;;;;;;6.90;6.20;;;;;;;12.26;100.00;95895.28;5068379;27;105185;-55
2023/05/21 04:29:19;;;;;;;6.47;5.87;;;;;;;12.27;100.00;95898.75;5071755;27;102133;-54
2023/05/21 04:31:48;;;;;;;6.50;5.90;;;;;;;12.20;100.00;95903.56;5068598;27;104967;-55
2023/05/21 04:34:16;;;;;;;8.57;6.47;;;;;;;12.21;100.00;95905.16;5068972;27;101945;-55
2023/05/21 04:36:44;;;;;;;7.13;6.43;;;;;;;12.35;100.00;95911.50;5070510;27;102461;-53
2023/05/21 04:39:12;;;;;;;7.07;6.13;;;;;;;12.33;100.00;95913.66;5070001;27;102207;-53
2023/05/21 04:41:39;;;;;;;7.57;6.63;;;;;;;12.46;100.00;95913.06;5068784;27;102207;-55
2023/05/21 04:44:09;;;;;;;6.97;6.37;;;;;;;12.32;100.00;95912.06;5070531;27;102797;-54
2023/05/21 04:46:36;;;;;;;7.97;7.17;;;;;;;12.25;100.00;95916.88;5068123;27;103850;-54
2023/05/21 04:49:03;;;;;;;7.20;6.50;;;;;;;12.17;100.00;95909.44;5068390;27;102523;-55
2023/05/21 04:51:30;;;;;;;8.30;7.20;;;;;;;12.23;100.00;95911.81;5071435;27;104835;-55
2023/05/21 04:53:58;;;;;;;7.60;6.90;;;;;;;12.18;100.00;95906.50;5068443;27;101902;-56
2023/05/21 04:56:26;;;;;;;9.40;6.90;;;;;;;12.37;100.00;95914.72;5068438;27;105112;-56
2023/05/21 04:58:53;;;;;;;8.10;7.30;;;;;;;12.49;100.00;95923.97;5067911;27;104045;-53
2023/05/21 05:01:24;;;;;;;7.10;6.50;;;;;;;12.62;100.00;95911.91;5068409;27;101930;-54
2023/05/21 05:03:51;;;;;;;8.83;6.73;;;;;;;12.77;100.00;95914.50;5068830;27;104941;-54
2023/05/21 05:06:18;;;;;;;7.40;6.70;;;;;;;12.85;100.00;95912.06;5067880;27;105081;-57
2023/05/21 05:08:46;;;;;;;6.87;6.27;;;;;;;12.93;100.00;95914.13;5068384;27;102598;-56
2023/05/21 05:11:14;;;;;;;7.37;6.57;;;;;;;12.90;100.00;95909.38;5068220;27;104932;-52
2023/05/21 05:13:41;;;;;;;8.03;7.23;;;;;;;12.94;100.00;95913.09;5072364;27;103068;-52
2023/05/21 05:16:10;;;;;;;6.80;6.20;;;;;;;13.05;100.00;95905.84;5068522;27;105045;-54
2023/05/21 05:18:38;;;;;;;7.13;6.43;;;;;;;13.08;100.00;95906.06;5067457;27;105098;-55
2023/05/21 05:21:05;;;;;;;8.20;6.83;;;;;;;13.11;100.00;95907.41;5068164;27;101990;-54
2023/05/21 05:23:33;;;;;;;7.77;6.90;;;;;;;13.31;100.00;95905.38;5068205;27;105206;-52
2023/05/21 05:26:00;;;;;;;7.57;6.87;;;;;;;13.48;100.00;95908.47;5067347;27;105601;-56
2023/05/21 05:28:28;;;;;;;7.90;7.00;;;;;;;13.59;100.00;95907.31;5067915;27;102079;-56
2023/05/21 05:30:54;;;;;;;7.03;6.43;;;;;;;13.68;100.00;95900.25;5068136;27;105292;-54
2023/05/21 05:33:24;;;;;;;7.90;7.20;;;;;;;13.81;100.00;95904.16;5066902;27;105160;-60
2023/05/21 05:35:52;;;;;;;7.70;6.87;;;;;;;14.01;100.00;95914.66;5073255;27;102072;-60
2023/05/21 05:38:21;;;;;;;7.80;7.07;;;;;;;14.19;100.00;95911.25;5067381;27;105565;-60
2023/05/21 05:40:47;;;;;;;7.37;6.67;;;;;;;14.35;100.00;95910.03;5067973;27;102359;-59
2023/05/21 05:43:14;;;;;;;9.47;6.67;;;;;;;14.53;100.00;95911.94;5067761;27;104471;-59
2023/05/21 05:45:41;;;;;;;7.63;6.83;;;;;;;14.70;100.00;95906.91;5067301;27;104042;-60
2023/05/21 05:48:13;;;;;;;8.50;7.20;;;;;;;14.80;100.00;95907.59;5067717;27;101815;-60
2023/05/21 05:50:40;;;;;;;7.43;6.73;;;;;;;15.01;100.00;95905.44;5069278;27;102525;-60
2023/05/21 05:53:08;;;;;;;6.77;6.13;;;;;;;15.22;100.00;95902.19;5067094;27;105099;-60
2023/05/21 05:55:35;;;;;;;7.57;6.63;;;;;;;15.45;100.00;95900.50;5066688;27;102457;-60
2023/05/21 05:58:02;;;;;;;7.53;6.70;;;;;;;15.73;100.00;95905.66;5070304;27;105175;-60
2023/05/21 06:00:30;;;;;;;7.30;6.70;;;;;;;16.01;100.00;95890.41;5067785;27;101906;-60
2023/05/21 06:02:59;;;;;;;7.27;6.37;;;;;;;16.20;100.00;95891.13;5067658;27;103725;-60
2023/05/21 06:05:27;;;;;;;6.17;5.57;;;;;;;16.49;100.00;95889.78;5067082;27;104047;-60
2023/05/21 06:07:54;;;;;;;7.70;5.63;;;;;;;16.86;100.00;95900.28;5067522;27;102157;-60
2023/05/21 06:10:22;;;;;;;7.23;5.63;;;;;;;17.03;100.00;95896.97;5067794;27;105238;-60
2023/05/21 06:12:49;;;;;;;7.07;6.00;;;;;;;17.30;100.00;95896.88;5066243;27;105626;-60
2023/05/21 06:15:18;;;;;;;7.00;6.33;;;;;;;17.69;100.00;95905.09;5066930;27;102114;-60
2023/05/21 06:17:45;;;;;;;6.27;5.73;;;;;;;17.87;100.00;95898.75;5067101;27;104979;-60
2023/05/21 06:20:13;;;;;;;6.23;5.47;;;;;;;18.13;100.00;95891.59;5069773;27;102208;-60
2023/05/21 06:22:40;;;;;;;6.73;5.53;;;;;;;18.41;100.00;95891.13;5068663;27;102499;-60
2023/05/21 06:25:10;;;;;;;7.07;5.63;;;;;;;18.61;100.00;95890.56;5066411;27;105364;-60
2023/05/21 06:27:39;;;;;;;6.10;5.60;;;;;;;18.94;100.00;95882.88;5067395;27;102465;-60
2023/05/21 06:30:12;;;;;;;5.27;4.77;;;;;;;19.05;100.00;95890.34;5067353;27;103997;-60
2023/05/21 06:32:39;;;;;;;5.90;5.37;;;;;;;19.16;100.00;95888.94;5066632;27;105365;-60
2023/05/21 06:35:07;;;;;;;6.07;5.47;;;;;;;19.30;100.00;95894.19;5067343;27;102597;-60
2023/05/21 06:37:34;;;;;;;5.77;5.27;;;;;;;19.60;100.00;95896.72;5067094;27;103509;-60
2023/05/21 06:40:03;;;;;;;5.30;4.80;;;;;;;19.89;100.00;95893.38;5070228;27;105182;-60
2023/05/21 06:42:31;;;;;;;5.73;5.23;;;;;;;19.90;100.00;95889.53;5067268;27;105055;-60
2023/05/21 06:45:26;;;;;;;7.07;5.63;;;;;;;20.29;100.00;95892.00;5045384;27;102970;-60
2023/05/21 06:47:58;;;;;;;5.20;4.70;;;;;;;20.47;100.00;95894.31;5070734;27;103464;-60
2023/05/21 06:50:25;;;;;;;5.30;4.80;;;;;;;20.80;100.00;95887.16;5071854;27;102309;-60
2023/05/21 06:52:52;;;;;;;6.37;5.00;;;;;;;20.73;95.75;95892.28;5069770;27;104792;-60
2023/05/21 06:55:20;;;;;;;5.10;4.70;;;;;;;20.94;95.27;95882.34;5070657;27;101879;-60
2023/05/21 06:58:03;;;;;;;5.20;4.80;;;;;;;21.33;96.07;95895.44;5070381;27;103614;-60
2023/05/21 07:00:32;;;;;;;4.70;4.30;;;;;;;21.43;94.88;95897.75;5069916;27;105052;-60
2023/05/21 07:02:59;;;;;;;7.60;4.80;;;;;;;21.08;80.28;95882.09;5073929;27;102429;-60
2023/05/21 07:05:26;;;;;;;5.30;4.80;;;;;;;21.12;95.38;95888.41;5069452;27;105589;-60
2023/05/21 07:07:54;;;;;;;7.57;5.33;;;;;;;21.51;92.83;95896.88;5070130;27;102882;-60
2023/05/21 07:10:22;;;;;;;5.37;4.93;;;;;;;21.79;88.81;95886.31;5070351;27;105790;-60
2023/05/21 07:12:49;;;;;;;5.50;4.60;;;;;;;21.75;88.59;95888.09;5070956;27;103037;-60
2023/05/21 07:15:16;;;;;;;5.13;4.63;;;;;;;21.79;74.24;95889.81;5056334;27;101863;-60
2023/05/21 07:17:45;;;;;;;5.43;4.40;;;;;;;21.67;82.54;95897.03;5054812;27;102329;-60
2023/05/21 07:20:13;;;;;;;5.10;4.60;;;;;;;21.79;86.54;95897.16;5049145;27;104982;-60
2023/05/21 07:22:44;;;;;;;5.07;4.63;;;;;;;21.70;89.94;95885.59;5060174;27;102361;-61
2023/05/21 07:25:14;;;;;;;6.07;5.17;;;;;;;21.70;81.49;95888.31;5053448;27;104895;-61
2023/05/21 07:27:42;;;;;;;6.00;4.70;;;;;;;21.68;91.33;95885.16;5049176;27;101910;-60
2023/05/21 07:30:10;;;;;;;5.53;4.60;;;;;;;21.93;84.96;95887.59;5051294;27;105119;-60
2023/05/21 07:32:37;;;;;;;5.90;5.30;;;;;;;22.00;84.29;95887.03;5048850;27;105444;-60
2023/05/21 07:35:07;;;;;;;5.23;4.77;;;;;;;21.92;83.81;95880.63;5049203;27;102252;-60
2023/05/21 07:37:34;;;;;;;7.60;4.80;;;;;;;22.04;85.94;95883.34;5049105;27;105282;-60
2023/05/21 07:40:02;;;;;;;4.70;4.30;;;;;;;22.12;90.33;95876.25;5054961;27;105000;-60
2023/05/21 07:42:31;;;;;;;5.20;4.80;;;;;;;22.30;82.87;95874.94;5068685;27;102317;-60
2023/05/21 07:44:58;;;;;;;4.90;4.40;;;;;;;22.45;80.95;95880.50;5050458;27;105012;-60
2023/05/21 07:47:27;;;;;;;6.70;4.50;;;;;;;22.58;71.54;95876.69;5052444;27;105865;-60
2023/05/21 07:49:54;;;;;;;7.50;4.70;;;;;;;22.91;71.72;95880.06;5069492;27;105055;-60
2023/05/21 07:52:22;;;;;;;4.97;4.50;;;;;;;23.24;74.11;95883.44;5068863;27;105586;-59
2023/05/21 07:54:50;;;;;;;5.30;4.60;;;;;;;22.98;64.60;95876.78;5053768;27;103193;-59
2023/05/21 07:57:17;;;;;;;6.23;4.60;;;;;;;23.11;69.82;95873.69;5066780;27;104901;-60
2023/05/21 08:00:06;;;;;;;5.23;4.83;;;;;;;23.05;60.68;95880.50;5055129;27;102504;-59
2023/05/21 08:02:41;;;;;;;4.60;4.20;;;;;;;23.15;59.01;95879.25;5047085;27;102267;-60
2023/05/21 08:05:10;;;;;;;5.17;4.67;;;;;;;23.69;62.82;95877.75;5049017;27;104645;-62
2023/05/21 08:07:39;;;;;;;5.03;4.50;;;;;;;23.73;57.12;95879.44;5054877;27;105544;-60
2023/05/21 08:10:07;;;;;;;4.83;4.27;;;;;;;24.17;60.10;95880.28;5074285;27;102248;-59
2023/05/21 08:12:35;;;;;;;4.47;4.07;;;;;;;24.46;60.98;95879.88;5061596;27;104157;-60
2023/05/21 08:15:02;;;;;;;4.77;4.37;;;;;;;24.41;54.10;95880.13;5050050;27;101946;-60
2023/05/21 08:17:29;;;;;;;5.27;4.50;;;;;;;24.40;51.74;95882.06;5050011;27;104916;-60
2023/05/21 08:19:56;;;;;;;5.53;5.03;;;;;;;24.40;56.99;95870.38;5048142;27;104802;-60
2023/05/21 08:22:23;;;;;;;4.90;4.50;;;;;;;24.49;61.00;95873.72;5049753;27;101956;-61
2023/05/21 08:24:52;;;;;;;5.17;4.73;;;;;;;25.23;57.83;95870.88;5048251;27;105078;-61
2023/05/21 08:27:19;;;;;;;5.03;4.60;;;;;;;24.97;53.35;95876.09;5050783;27;102581;-60
2023/05/21 08:29:46;;;;;;;5.10;4.70;;;;;;;24.94;53.06;95880.31;5051800;27;102650;-60
2023/05/21 08:32:12;;;;;;;4.87;4.47;;;;;;;25.47;51.97;95881.53;5048047;27;105185;-60
2023/05/21 08:34:39;;;;;;;6.73;4.70;;;;;;;25.11;54.10;95873.72;5049673;27;102002;-60
2023/05/21 08:37:18;;;;;;;5.43;4.93;;;;;;;24.34;57.49;95885.38;5067991;27;104866;-60
2023/05/21 08:40:04;;;;;;;5.50;5.00;;;;;;;24.07;59.87;95883.50;5068107;27;104467;-61
2023/05/21 08:42:42;;;;;;;5.03;4.63;;;;;;;24.49;65.12;95884.59;5068974;27;102019;-60
2023/05/21 08:45:14;;;;;;;5.13;4.53;;;;;;;24.26;65.63;95880.91;5068544;27;104921;-60
2023/05/21 08:47:43;;;;;;;5.20;4.80;;;;;;;24.04;62.40;95889.63;5066068;27;105016;-60
2023/05/21 08:50:12;;;;;;;5.53;5.00;;;;;;;24.05;61.04;95881.16;5066987;27;102285;-60
2023/05/21 08:52:41;;;;;;;5.50;4.97;;;;;;;24.26;62.22;95876.25;5071673;27;104968;-60
2023/05/21 08:55:10;;;;;;;7.83;4.80;;;;;;;24.37;60.31;95887.41;5060623;27;101983;-60
2023/05/21 08:57:43;;;;;;;5.27;4.77;;;;;;;24.62;60.55;95878.00;5048075;27;105434;-60
2023/05/21 09:00:14;;;;;;;5.30;4.80;;;;;;;24.82;56.21;95876.91;5047692;27;105264;-60
2023/05/21 09:02:42;;;;;;;4.80;4.40;;;;;;;25.14;54.76;95881.16;5048008;27;102003;-60
2023/05/21 09:05:10;;;;;;;5.27;4.77;;;;;;;25.22;53.82;95880.19;5065861;27;105002;-60
2023/05/21 09:07:43;;;;;;;4.87;4.47;;;;;;;25.89;52.28;95877.72;5056234;27;105445;-60
2023/05/21 09:10:35;;;;;;;5.13;4.63;;;;;;;26.17;47.65;95869.34;5047916;27;102056;-60
2023/05/21 09:13:03;;;;;;;5.23;4.73;;;;;;;26.29;52.14;95874.63;5062819;27;105146;-60
2023/05/21 09:15:31;;;;;;;5.10;4.70;;;;;;;26.80;48.52;95873.22;5056997;27;105078;-60
2023/05/21 09:17:58;;;;;;;4.83;4.43;;;;;;;27.05;47.72;95879.81;5047728;27;105155;-60
2023/05/21 09:20:49;;;;;;;5.03;4.43;;;;;;;26.88;43.96;95874.88;5047216;27;104299;-60
2023/05/21 09:23:18;;;;;;;4.73;4.27;;;;;;;27.20;44.85;95876.19;5063640;27;102006;-60
2023/05/21 09:25:50;;;;;;;4.90;4.47;;;;;;;27.22;45.16;95882.06;5067896;27;105198;-60
2023/05/21 09:28:29;;;;;;;4.37;4.07;;;;;;;27.31;44.52;95877.13;5046497;27;105374;-61
2023/05/21 09:30:56;;;;;;;6.07;4.97;;;;;;;27.24;44.92;95871.56;5048334;27;101919;-60
2023/05/21 09:33:28;;;;;;;4.90;4.40;;;;;;;27.16;44.54;95876.09;5047663;27;105575;-60
2023/05/21 09:35:56;;;;;;;5.20;4.60;;;;;;;26.84;44.81;95879.47;5047516;27;105282;-60
2023/05/21 09:38:25;;;;;;;4.90;4.50;;;;;;;27.10;41.59;95884.97;5069690;27;102218;-60
2023/05/21 09:40:55;;;;;;;5.17;4.63;;;;;;;27.18;41.75;95881.22;5067208;27;102757;-60
2023/05/21 09:43:23;;;;;;;4.90;4.50;;;;;;;27.34;40.77;95882.63;5068026;27;102120;-60
2023/05/21 09:45:54;;;;;;;5.03;4.60;;;;;;;27.56;41.83;95883.69;5052854;27;104954;-60
2023/05/21 09:48:35;;;;;;;4.97;4.50;;;;;;;27.48;41.88;95876.56;5063761;27;105051;-60
2023/05/21 09:51:15;;;;;;;4.80;4.40;;;;;;;27.61;39.76;95884.16;5047590;27;101949;-60
2023/05/21 09:53:48;;;;;;;4.87;4.43;;;;;;;27.65;39.01;95879.53;5053503;27;103418;-60
2023/05/21 09:56:18;;;;;;;4.53;4.13;;;;;;;27.96;37.67;95881.13;5048624;27;104406;-60
2023/05/21 09:58:46;;;;;;;4.77;4.37;;;;;;;27.73;37.78;95877.69;5048878;27;102096;-60
2023/05/21 10:01:13;;;;;;;4.60;4.20;;;;;;;26.98;38.48;95885.94;5052256;27;102381;-60
2023/05/21 10:03:43;;;;;;;4.57;4.17;;;;;;;27.51;38.31;95876.63;5066053;27;102344;-60
2023/05/21 10:06:11;;;;;;;4.50;4.10;;;;;;;27.95;38.61;95880.31;5047294;27;105137;-60
2023/05/21 10:08:45;;;;;;;4.90;4.60;;;;;;;28.52;38.79;95888.00;5046534;27;105296;-60
2023/05/21 10:11:12;;;;;;;4.77;4.13;;;;;;;28.73;37.34;95881.94;5047259;27;101906;-60
2023/05/21 10:13:45;;;;;;;5.07;4.63;;;;;;;28.44;36.97;95882.84;5048177;27;102362;-60
2023/05/21 10:16:13;;;;;;;4.67;4.30;;;;;;;28.87;37.72;95882.06;5046657;27;105491;-60
2023/05/21 10:18:42;;;;;;;4.25;3.85;;;;;;;28.12;36.57;95877.00;5047383;27;102172;-60
2023/05/21 10:21:09;;;;;;;4.50;4.20;;;;;;;28.40;34.53;95874.56;5064976;27;102294;-60
2023/05/21 10:23:37;;;;;;;5.03;4.53;;;;;;;28.12;36.02;95873.50;5071892;27;103739;-60
2023/05/21 10:26:07;;;;;;;4.80;4.40;;;;;;;28.20;36.69;95875.13;5071168;27;103659;-60
2023/05/21 10:28:34;;;;;;;4.47;4.07;;;;;;;28.62;32.19;95870.91;5050613;27;103849;-60
2023/05/21 10:31:03;;;;;;;5.53;4.15;;;;;;;28.85;34.80;95865.22;5062930;27;101899;-60
2023/05/21 10:33:32;;;;;;;4.75;4.00;;;;;;;29.39;32.58;95863.28;5068462;27;102340;-60
2023/05/21 10:35:59;;;;;;;4.10;3.70;;;;;;;28.95;30.93;95864.50;5050691;27;105333;-60
2023/05/21 10:38:27;;;;;;;5.30;4.00;;;;;;;28.56;29.99;95866.91;5053467;27;101805;-60
2023/05/21 10:40:56;;;;;;;4.40;3.97;;;;;;;28.68;33.02;95852.16;5052500;27;102566;-60
2023/05/21 10:43:41;;;;;;;5.50;3.95;;;;;;;29.14;32.27;95859.59;5054011;27;105343;-60
2023/05/21 10:46:27;;;;;;;4.72;4.32;;;;;;;29.63;34.30;95859.09;5050916;27;103510;-60
2023/05/21 10:49:15;;;;;;;3.97;3.67;;;;;;;29.49;34.68;95853.53;5050188;27;105462;-60
2023/05/21 10:51:53;;;;;;;4.57;4.18;;;;;;;29.20;36.88;95857.28;5052419;27;101834;-60
2023/05/21 10:54:59;;;;;;;5.55;4.40;;;;;;;29.58;36.38;95856.75;5069148;27;102429;-60
2023/05/21 10:57:46;;;;;;;4.18;3.75;;;;;;;29.98;34.19;95853.78;5051967;27;102601;-60
2023/05/21 11:00:19;;;;;;;4.43;4.10;;;;;;;30.03;32.87;95850.66;5052179;27;102207;-60
2023/05/21 11:02:50;;;;;;;4.03;3.72;;;;;;;30.34;33.08;95839.00;5052464;27;102334;-60
2023/05/21 11:05:34;;;;;;;4.35;3.95;;;;;;;30.28;30.35;95840.53;5051415;27;103119;-59
2023/05/21 11:08:01;;;;;;;4.20;3.80;;;;;;;30.44;31.62;95846.44;5070132;27;102094;-59
2023/05/21 11:10:37;;;;;;;4.55;4.15;;;;;;;30.43;31.89;95842.16;5052502;27;104087;-59
2023/05/21 11:13:07;;;;;;;4.30;3.90;;;;;;;30.55;31.17;95844.50;5049938;27;101999;-60
2023/05/21 11:16:07;;;;;;;4.10;3.80;;;;;;;30.72;31.28;95841.81;5050689;27;105341;-59
2023/05/21 11:19:00;;;;;;;4.57;3.92;;;;;;;30.61;30.42;95840.19;5051444;27;102729;-59
2023/05/21 11:21:34;;;;;;;4.28;3.88;;;;;;;29.65;30.15;95838.38;5036918;27;102161;-60
2023/05/21 11:24:05;;;;;;;4.63;4.13;;;;;;;28.36;30.42;95840.91;5072467;27;103401;-59
2023/05/21 11:27:01;;;;;;;4.53;4.20;;;;;;;29.45;30.24;95837.09;5067414;27;102673;-59
2023/05/21 11:29:39;;;;;;;4.15;3.80;;;;;;;29.52;30.62;95833.56;5049208;27;102394;-60
2023/05/21 11:32:08;;;;;;;3.88;3.58;;;;;;;30.02;30.51;95838.91;5054560;27;103434;-59